createdAt,value
2022-08-18T00:00:40.747Z,100
2022-08-18T00:05:42.820Z,100
2022-08-18T00:10:44.353Z,100
2022-08-18T00:15:48.682Z,100
2022-08-18T00:20:47.366Z,100
2022-08-18T00:25:48.582Z,100
2022-08-18T00:30:53.861Z,100
2022-08-18T00:35:51.874Z,100
2022-08-18T00:40:53.541Z,100
2022-08-18T00:45:55.096Z,100
2022-08-18T00:50:56.691Z,100
2022-08-18T00:55:58.592Z,100
2022-08-18T01:01:00.095Z,100
2022-08-18T01:06:02.044Z,100
2022-08-18T01:11:03.304Z,100
2022-08-18T01:16:05.007Z,100
2022-08-18T01:21:06.230Z,100
2022-08-18T01:26:08.340Z,100
2022-08-18T01:31:10.346Z,100
2022-08-18T01:36:12.358Z,100
2022-08-18T01:41:25.426Z,100
2022-08-18T01:46:16.009Z,100
2022-08-18T01:51:17.823Z,100
2022-08-18T01:56:19.045Z,100
2022-08-18T02:01:20.370Z,100
2022-08-18T02:06:26.376Z,100
2022-08-18T02:11:24.076Z,100
2022-08-18T02:16:26.036Z,100
2022-08-18T02:21:27.574Z,100
2022-08-18T02:26:29.670Z,100
2022-08-18T02:31:31.246Z,100
2022-08-18T02:36:33.180Z,100
2022-08-18T02:41:35.344Z,100
2022-08-18T02:46:36.589Z,100
2022-08-18T02:51:38.239Z,100
2022-08-18T02:56:42.328Z,100
2022-08-18T03:01:41.789Z,100
2022-08-18T03:06:44.168Z,100
2022-08-18T03:11:45.221Z,100
2022-08-18T03:16:53.309Z,100
2022-08-18T03:21:48.497Z,100
2022-08-18T03:26:50.235Z,100
2022-08-18T03:31:51.592Z,100
2022-08-18T03:36:53.528Z,100
2022-08-18T03:41:57.767Z,100
2022-08-18T03:46:56.709Z,100
2022-08-18T03:51:58.537Z,100
2022-08-18T03:56:59.821Z,100
2022-08-18T04:02:01.508Z,100
2022-08-18T04:07:03.456Z,100
2022-08-18T04:12:05.534Z,100
2022-08-18T04:17:07.117Z,100
2022-08-18T04:22:08.374Z,100
2022-08-18T04:27:09.798Z,100
2022-08-18T04:32:11.170Z,100
2022-08-18T04:37:13.247Z,100
2022-08-18T04:42:14.690Z,100
2022-08-18T04:47:16.866Z,100
2022-08-18T04:52:21.895Z,100
2022-08-18T04:57:19.544Z,100
2022-08-18T05:02:21.119Z,100
2022-08-18T05:07:22.283Z,100
2022-08-18T05:12:26.228Z,100
2022-08-18T05:17:25.395Z,100
2022-08-18T05:22:28.504Z,100
2022-08-18T05:27:36.941Z,100
2022-08-18T05:32:37.060Z,100
2022-08-18T05:37:31.820Z,100
2022-08-18T05:42:33.893Z,100
2022-08-18T05:47:35.712Z,100
2022-08-18T05:52:37.709Z,100
2022-08-18T05:57:39.464Z,100
2022-08-18T06:02:41.465Z,100
2022-08-18T06:07:43.479Z,100
2022-08-18T06:12:47.041Z,100
2022-08-18T06:17:47.461Z,100
2022-08-18T06:22:52.674Z,100
2022-08-18T06:27:50.301Z,100
2022-08-18T06:32:52.072Z,100
2022-08-18T06:37:54.142Z,100
2022-08-18T06:42:55.336Z,100
2022-08-18T06:47:57.407Z,100
2022-08-18T06:52:58.624Z,100
2022-08-18T06:58:00.092Z,100
2022-08-18T07:03:02.128Z,100
2022-08-18T07:08:04.040Z,100
2022-08-18T07:13:05.480Z,100
2022-08-18T07:18:06.740Z,100
2022-08-18T07:23:08.567Z,100
2022-08-18T07:28:10.661Z,100
2022-08-18T07:33:12.389Z,100
2022-08-18T07:38:38.951Z,100
2022-08-18T07:43:16.387Z,100
2022-08-18T07:48:38.441Z,100
2022-08-18T07:53:19.913Z,100
2022-08-18T07:58:21.920Z,100
2022-08-18T08:08:25.677Z,100
2022-08-18T08:28:31.282Z,92
2022-08-18T08:33:32.780Z,92
2022-08-18T08:38:42.528Z,84
2022-08-18T08:43:35.749Z,82
2022-08-18T09:03:50.961Z,81
2022-08-18T09:08:43.165Z,78
2022-08-18T09:13:45.072Z,79
2022-08-18T09:23:48.214Z,72
2022-08-18T09:28:50.297Z,68
2022-08-18T09:33:51.903Z,68
2022-08-18T09:38:54.048Z,67
2022-08-18T09:43:55.753Z,65
2022-08-18T09:48:57.118Z,66
2022-08-18T09:53:58.526Z,60
2022-08-18T09:59:00.618Z,65
2022-08-18T10:04:02.629Z,61
2022-08-18T10:09:14.734Z,63
2022-08-18T10:14:05.327Z,60
2022-08-18T10:19:06.732Z,61
2022-08-18T10:24:31.972Z,61
2022-08-18T10:29:09.756Z,61
2022-08-18T10:34:16.672Z,59
2022-08-18T10:39:12.833Z,56
2022-08-18T10:44:28.116Z,56
2022-08-18T10:49:15.851Z,55
2022-08-18T10:54:18.489Z,54
2022-08-18T10:59:19.238Z,53
2022-08-18T11:04:33.807Z,54
2022-08-18T11:09:23.287Z,52
2022-08-18T11:14:25.319Z,51
2022-08-18T11:19:26.873Z,52
2022-08-18T11:24:28.867Z,52
2022-08-18T11:29:32.109Z,51
2022-08-18T11:34:32.554Z,52
2022-08-18T11:39:37.823Z,54
2022-08-18T11:44:36.187Z,52
2022-08-18T11:49:37.846Z,52
2022-08-18T11:54:39.128Z,49
2022-08-18T11:59:54.077Z,50
2022-08-18T12:04:41.858Z,51
2022-08-18T12:14:45.970Z,51
2022-08-18T12:19:47.511Z,51
2022-08-18T12:24:49.145Z,50
2022-08-18T12:24:55.578Z,50
2022-08-18T12:29:57.766Z,51
2022-08-18T12:35:03.599Z,51
2022-08-18T12:40:00.734Z,51
2022-08-18T12:45:02.497Z,50
2022-08-18T12:50:03.678Z,50
2022-08-18T12:55:05.631Z,51
2022-08-18T13:00:06.881Z,51
2022-08-18T13:05:08.912Z,50
2022-08-18T13:10:21.528Z,51
2022-08-18T13:15:12.630Z,52
2022-08-18T13:20:14.090Z,51
2022-08-18T13:25:29.006Z,52
2022-08-18T13:30:29.691Z,51
2022-08-18T13:35:18.900Z,50
2022-08-18T13:40:20.697Z,51
2022-08-18T13:45:25.447Z,50
2022-08-18T13:50:29.492Z,49
2022-08-18T13:55:25.661Z,49
2022-08-18T14:00:30.464Z,49
2022-08-18T14:05:36.342Z,50
2022-08-18T14:10:30.977Z,50
2022-08-18T14:15:33.057Z,50
2022-08-18T14:20:34.392Z,51
2022-08-18T14:25:36.019Z,51
2022-08-18T14:30:37.303Z,51
2022-08-18T14:36:04.770Z,52
2022-08-18T14:40:41.620Z,52
2022-08-18T14:45:42.661Z,52
2022-08-18T14:50:44.805Z,52
2022-08-18T14:55:46.348Z,52
2022-08-18T15:00:49.955Z,51
2022-08-18T15:05:49.322Z,53
2022-08-18T15:10:51.124Z,52
2022-08-18T15:15:52.669Z,51
2022-08-18T15:20:54.465Z,51
2022-08-18T15:25:56.422Z,52
2022-08-18T15:35:58.719Z,53
2022-08-18T15:41:00.991Z,53
2022-08-18T15:46:03.629Z,53
2022-08-18T15:51:06.215Z,53
2022-08-18T15:56:06.129Z,54
2022-08-18T16:01:21.093Z,56
2022-08-18T16:06:09.451Z,59
2022-08-18T16:11:11.311Z,56
2022-08-18T16:16:12.998Z,57
2022-08-18T16:21:14.569Z,59
2022-08-18T16:31:17.592Z,58
2022-08-18T16:36:19.725Z,61
2022-08-18T16:41:21.032Z,60
2022-08-18T16:46:22.236Z,62
2022-08-18T16:51:23.487Z,63
2022-08-18T16:56:25.247Z,62
2022-08-18T17:01:26.800Z,63
2022-08-18T17:06:28.546Z,63
2022-08-18T17:11:29.996Z,65
2022-08-18T17:16:31.382Z,66
2022-08-18T17:26:34.489Z,69
2022-08-18T17:31:36.184Z,69
2022-08-18T17:36:38.079Z,68
2022-08-18T17:41:40.158Z,69
2022-08-18T17:46:41.662Z,70
2022-08-18T17:51:43.447Z,73
2022-08-18T17:56:44.980Z,76
2022-08-18T18:01:47.212Z,81
2022-08-18T18:06:49.462Z,86
2022-08-18T18:11:50.993Z,88
2022-08-18T18:16:52.349Z,90
2022-08-18T18:22:01.096Z,94
2022-08-18T18:26:55.366Z,95
2022-08-18T18:31:58.427Z,98
2022-08-18T18:36:58.810Z,100
2022-08-18T18:42:00.484Z,100
2022-08-18T18:47:02.319Z,100
2022-08-18T18:52:04.187Z,100
2022-08-18T18:57:07.053Z,100
2022-08-18T19:02:13.526Z,100
2022-08-18T19:07:08.626Z,100
2022-08-18T19:12:10.827Z,100
2022-08-18T19:17:12.964Z,100
2022-08-18T19:22:18.311Z,100
2022-08-18T19:27:15.582Z,100
2022-08-18T19:32:17.212Z,100
2022-08-18T19:37:26.756Z,100
2022-08-18T19:42:20.028Z,100
2022-08-18T19:47:23.229Z,100
2022-08-18T19:52:45.390Z,100
2022-08-18T19:57:25.644Z,100
2022-08-18T20:02:27.656Z,100
2022-08-18T20:07:28.815Z,100
2022-08-18T20:12:30.846Z,100
2022-08-18T20:17:32.128Z,100
2022-08-18T20:22:33.416Z,100
2022-08-18T20:27:36.146Z,100
2022-08-18T20:32:36.835Z,100
2022-08-18T20:37:38.165Z,100
2022-08-18T20:42:39.418Z,100
2022-08-18T20:47:41.062Z,100
2022-08-18T20:52:43.211Z,100
2022-08-18T20:57:44.744Z,100
2022-08-18T21:02:46.181Z,100
2022-08-18T21:07:48.279Z,100
2022-08-18T21:12:50.249Z,100
2022-08-18T21:17:55.101Z,100
2022-08-18T21:22:53.251Z,100
2022-08-18T21:27:55.056Z,100
2022-08-18T21:32:56.250Z,100
2022-08-18T21:37:57.594Z,100
2022-08-18T21:42:59.022Z,100
2022-08-18T21:48:00.342Z,100
2022-08-18T21:53:01.551Z,100
2022-08-18T21:58:03.278Z,100
2022-08-18T22:13:08.065Z,100
2022-08-18T22:18:09.398Z,100
2022-08-18T22:23:11.354Z,100
2022-08-18T22:28:13.036Z,100
2022-08-18T22:33:14.975Z,100
2022-08-18T22:38:16.196Z,100
2022-08-18T22:43:17.931Z,100
2022-08-18T22:48:19.288Z,100
2022-08-18T23:08:28.331Z,100
2022-08-18T23:13:28.105Z,100
2022-08-18T23:18:29.986Z,100
2022-08-18T23:28:33.690Z,100
2022-08-18T23:33:34.952Z,100
2022-08-18T23:48:40.117Z,100
2022-08-18T23:53:41.599Z,100
2022-08-18T23:58:43.166Z,100
